sensor_id;sensor_type;location;lat;lon;timestamp;pressure;altitude;pressure_sealevel;temperature;humidity
10940;BME280;5522;42.696;23.494;2023-02-21T00:00:23;53598.50;;;-139.68;100.00
10940;BME280;5522;42.696;23.494;2023-02-21T00:03:09;53626.66;;;-139.68;100.00
10940;BME280;5522;42.696;23.494;2023-02-21T00:05:53;53548.25;;;-139.68;100.00
10940;BME280;5522;42.696;23.494;2023-02-21T00:08:37;53600.53;;;-139.68;100.00
10940;BME280;5522;42.696;23.494;2023-02-21T00:11:21;53546.25;;;-139.68;100.00
10940;BME280;5522;42.696;23.494;2023-02-21T00:14:05;53548.25;;;-139.68;100.00
10940;BME280;5522;42.696;23.494;2023-02-21T00:16:50;53558.31;;;-139.68;100.00
10940;BME280;5522;42.696;23.494;2023-02-21T00:19:36;53584.44;;;-139.68;100.00
10940;BME280;5522;42.696;23.494;2023-02-21T00:22:20;53572.38;;;-139.68;100.00
10940;BME280;5522;42.696;23.494;2023-02-21T00:25:05;53524.13;;;-139.68;100.00
10940;BME280;5522;42.696;23.494;2023-02-21T00:27:52;53562.31;;;-139.68;100.00
10940;BME280;5522;42.696;23.494;2023-02-21T00:30:36;53562.31;;;-139.68;100.00
10940;BME280;5522;42.696;23.494;2023-02-21T00:33:21;53558.31;;;-139.68;100.00
10940;BME280;5522;42.696;23.494;2023-02-21T00:36:07;53564.34;;;-139.68;100.00
10940;BME280;5522;42.696;23.494;2023-02-21T00:38:52;53550.25;;;-139.68;100.00
10940;BME280;5522;42.696;23.494;2023-02-21T00:41:36;53570.38;;;-139.68;100.00
10940;BME280;5522;42.696;23.494;2023-02-21T00:44:21;53574.38;;;-139.68;100.00
10940;BME280;5522;42.696;23.494;2023-02-21T00:47:04;53574.38;;;-139.68;100.00
10940;BME280;5522;42.696;23.494;2023-02-21T00:49:49;53540.22;;;-139.68;100.00
10940;BME280;5522;42.696;23.494;2023-02-21T00:52:34;53570.38;;;-139.68;100.00
10940;BME280;5522;42.696;23.494;2023-02-21T00:55:18;53568.34;;;-139.68;100.00
10940;BME280;5522;42.696;23.494;2023-02-21T00:58:02;53554.28;;;-139.68;100.00
10940;BME280;5522;42.696;23.494;2023-02-21T01:05:57;53574.38;;;-139.68;100.00
10940;BME280;5522;42.696;23.494;2023-02-21T01:08:44;53576.41;;;-139.68;100.00
10940;BME280;5522;42.696;23.494;2023-02-21T01:11:29;53554.28;;;-139.68;100.00
10940;BME280;5522;42.696;23.494;2023-02-21T01:14:13;53572.38;;;-139.68;100.00
10940;BME280;5522;42.696;23.494;2023-02-21T01:16:58;53572.38;;;-139.68;100.00
10940;BME280;5522;42.696;23.494;2023-02-21T01:19:42;53556.28;;;-139.68;100.00
10940;BME280;5522;42.696;23.494;2023-02-21T01:22:26;53554.28;;;-139.68;100.00
10940;BME280;5522;42.696;23.494;2023-02-21T01:25:12;53576.41;;;-139.68;100.00
10940;BME280;5522;42.696;23.494;2023-02-21T01:27:56;53590.47;;;-139.68;100.00
10940;BME280;5522;42.696;23.494;2023-02-21T01:30:40;53542.22;;;-139.68;100.00
10940;BME280;5522;42.696;23.494;2023-02-21T01:33:24;53562.31;;;-139.68;100.00
10940;BME280;5522;42.696;23.494;2023-02-21T01:36:09;53594.50;;;-139.68;100.00
10940;BME280;5522;42.696;23.494;2023-02-21T01:38:54;53542.22;;;-139.68;100.00
10940;BME280;5522;42.696;23.494;2023-02-21T01:41:40;53548.25;;;-139.68;100.00
10940;BME280;5522;42.696;23.494;2023-02-21T01:44:34;53582.44;;;-139.68;100.00
10940;BME280;5522;42.696;23.494;2023-02-21T01:47:19;53544.22;;;-139.68;100.00
10940;BME280;5522;42.696;23.494;2023-02-21T01:50:08;53562.31;;;-139.68;100.00
10940;BME280;5522;42.696;23.494;2023-02-21T01:52:54;53592.47;;;-139.68;100.00
10940;BME280;5522;42.696;23.494;2023-02-21T01:55:39;53578.41;;;-139.68;100.00
10940;BME280;5522;42.696;23.494;2023-02-21T01:58:27;53594.50;;;-139.68;100.00
10940;BME280;5522;42.696;23.494;2023-02-21T02:01:19;53572.38;;;-139.68;100.00
10940;BME280;5522;42.696;23.494;2023-02-21T02:04:05;53580.41;;;-139.68;100.00
10940;BME280;5522;42.696;23.494;2023-02-21T02:06:50;53612.56;;;-139.68;100.00
10940;BME280;5522;42.696;23.494;2023-02-21T02:09:35;53606.56;;;-139.68;100.00
10940;BME280;5522;42.696;23.494;2023-02-21T02:12:37;53586.44;;;-139.68;100.00
10940;BME280;5522;42.696;23.494;2023-02-21T02:15:22;53598.50;;;-139.68;100.00
10940;BME280;5522;42.696;23.494;2023-02-21T02:21:04;53590.47;;;-139.68;100.00
10940;BME280;5522;42.696;23.494;2023-02-21T02:29:38;53574.38;;;-139.68;100.00
10940;BME280;5522;42.696;23.494;2023-02-21T02:32:24;53596.50;;;-139.68;100.00
10940;BME280;5522;42.696;23.494;2023-02-21T02:34:59;53572.38;;;-139.68;100.00
10940;BME280;5522;42.696;23.494;2023-02-21T02:37:32;53550.25;;;-139.68;100.00
10940;BME280;5522;42.696;23.494;2023-02-21T02:40:06;53584.44;;;-139.68;100.00
10940;BME280;5522;42.696;23.494;2023-02-21T02:42:41;53564.34;;;-139.68;100.00
10940;BME280;5522;42.696;23.494;2023-02-21T02:45:14;53554.28;;;-139.68;100.00
10940;BME280;5522;42.696;23.494;2023-02-21T02:47:44;53584.44;;;-139.68;100.00
10940;BME280;5522;42.696;23.494;2023-02-21T02:50:16;53614.59;;;-139.68;100.00
10940;BME280;5522;42.696;23.494;2023-02-21T02:52:50;53578.41;;;-139.68;100.00
10940;BME280;5522;42.696;23.494;2023-02-21T02:55:25;53554.28;;;-139.68;100.00
10940;BME280;5522;42.696;23.494;2023-02-21T02:57:56;53576.41;;;-139.68;100.00
10940;BME280;5522;42.696;23.494;2023-02-21T03:00:23;53594.50;;;-139.68;100.00
10940;BME280;5522;42.696;23.494;2023-02-21T03:03:02;53562.31;;;-139.68;100.00
10940;BME280;5522;42.696;23.494;2023-02-21T03:05:46;53578.41;;;-139.68;100.00
10940;BME280;5522;42.696;23.494;2023-02-21T03:08:24;53594.50;;;-139.68;100.00
10940;BME280;5522;42.696;23.494;2023-02-21T03:10:58;53568.34;;;-139.68;100.00
10940;BME280;5522;42.696;23.494;2023-02-21T03:13:34;53552.28;;;-139.68;100.00
10940;BME280;5522;42.696;23.494;2023-02-21T03:16:08;53578.41;;;-139.68;100.00
10940;BME280;5522;42.696;23.494;2023-02-21T03:18:41;53590.47;;;-139.68;100.00
10940;BME280;5522;42.696;23.494;2023-02-21T03:21:12;53554.28;;;-139.68;100.00
10940;BME280;5522;42.696;23.494;2023-02-21T03:23:42;53552.28;;;-139.68;100.00
10940;BME280;5522;42.696;23.494;2023-02-21T03:26:11;53576.41;;;-139.68;100.00
10940;BME280;5522;42.696;23.494;2023-02-21T03:28:40;53598.50;;;-139.68;100.00
10940;BME280;5522;42.696;23.494;2023-02-21T03:31:08;53590.47;;;-139.68;100.00
10940;BME280;5522;42.696;23.494;2023-02-21T03:33:37;53554.28;;;-139.68;100.00
10940;BME280;5522;42.696;23.494;2023-02-21T03:36:06;53562.31;;;-139.68;100.00
10940;BME280;5522;42.696;23.494;2023-02-21T03:38:36;53570.38;;;-139.68;100.00
10940;BME280;5522;42.696;23.494;2023-02-21T03:41:03;53582.44;;;-139.68;100.00
10940;BME280;5522;42.696;23.494;2023-02-21T03:43:30;53588.47;;;-139.68;100.00
10940;BME280;5522;42.696;23.494;2023-02-21T03:45:57;53570.38;;;-139.68;100.00
10940;BME280;5522;42.696;23.494;2023-02-21T03:48:24;53602.53;;;-139.68;100.00
10940;BME280;5522;42.696;23.494;2023-02-21T03:50:51;53618.63;;;-139.68;100.00
10940;BME280;5522;42.696;23.494;2023-02-21T03:53:18;53574.38;;;-139.68;100.00
10940;BME280;5522;42.696;23.494;2023-02-21T03:55:46;53564.34;;;-139.68;100.00
10940;BME280;5522;42.696;23.494;2023-02-21T03:58:13;53562.31;;;-139.68;100.00
10940;BME280;5522;42.696;23.494;2023-02-21T04:00:40;53554.28;;;-139.68;100.00
10940;BME280;5522;42.696;23.494;2023-02-21T04:03:07;53602.53;;;-139.68;100.00
10940;BME280;5522;42.696;23.494;2023-02-21T04:05:34;53606.56;;;-139.68;100.00
10940;BME280;5522;42.696;23.494;2023-02-21T04:08:01;53564.34;;;-139.68;100.00
10940;BME280;5522;42.696;23.494;2023-02-21T04:10:28;53572.38;;;-139.68;100.00
10940;BME280;5522;42.696;23.494;2023-02-21T04:12:57;53622.63;;;-139.68;100.00
10940;BME280;5522;42.696;23.494;2023-02-21T04:15:24;53560.31;;;-139.68;100.00
10940;BME280;5522;42.696;23.494;2023-02-21T04:17:50;53626.66;;;-139.68;100.00
10940;BME280;5522;42.696;23.494;2023-02-21T04:20:17;53558.31;;;-139.68;100.00
10940;BME280;5522;42.696;23.494;2023-02-21T04:22:44;53564.34;;;-139.68;100.00
10940;BME280;5522;42.696;23.494;2023-02-21T04:25:11;53594.50;;;-139.68;100.00
10940;BME280;5522;42.696;23.494;2023-02-21T04:27:38;53600.53;;;-139.68;100.00
10940;BME280;5522;42.696;23.494;2023-02-21T04:30:08;53570.38;;;-139.68;100.00
10940;BME280;5522;42.696;23.494;2023-02-21T04:32:35;53570.38;;;-139.68;100.00
10940;BME280;5522;42.696;23.494;2023-02-21T04:35:02;53574.38;;;-139.68;100.00
10940;BME280;5522;42.696;23.494;2023-02-21T04:37:29;53598.50;;;-139.68;100.00
10940;BME280;5522;42.696;23.494;2023-02-21T04:39:55;53592.47;;;-139.68;100.00
10940;BME280;5522;42.696;23.494;2023-02-21T04:42:23;53590.47;;;-139.68;100.00
10940;BME280;5522;42.696;23.494;2023-02-21T04:44:50;53572.38;;;-139.68;100.00
10940;BME280;5522;42.696;23.494;2023-02-21T04:47:18;53594.50;;;-139.68;100.00
10940;BME280;5522;42.696;23.494;2023-02-21T04:49:45;53554.28;;;-139.68;100.00
10940;BME280;5522;42.696;23.494;2023-02-21T04:52:16;53574.38;;;-139.68;100.00
10940;BME280;5522;42.696;23.494;2023-02-21T04:54:45;53566.34;;;-139.68;100.00
10940;BME280;5522;42.696;23.494;2023-02-21T04:57:12;53578.41;;;-139.68;100.00
10940;BME280;5522;42.696;23.494;2023-02-21T04:59:39;53584.44;;;-139.68;100.00
10940;BME280;5522;42.696;23.494;2023-02-21T05:02:06;53600.53;;;-139.68;100.00
10940;BME280;5522;42.696;23.494;2023-02-21T05:04:35;53578.41;;;-139.68;100.00
10940;BME280;5522;42.696;23.494;2023-02-21T05:07:03;53584.44;;;-139.68;100.00
10940;BME280;5522;42.696;23.494;2023-02-21T05:09:30;53566.34;;;-139.68;100.00
10940;BME280;5522;42.696;23.494;2023-02-21T05:11:57;53622.63;;;-139.68;100.00
10940;BME280;5522;42.696;23.494;2023-02-21T05:14:24;53602.53;;;-139.68;100.00
10940;BME280;5522;42.696;23.494;2023-02-21T05:16:51;53548.25;;;-139.68;100.00
10940;BME280;5522;42.696;23.494;2023-02-21T05:19:19;53588.47;;;-139.68;100.00
10940;BME280;5522;42.696;23.494;2023-02-21T05:21:53;53562.31;;;-139.68;100.00
10940;BME280;5522;42.696;23.494;2023-02-21T05:24:20;53594.50;;;-139.68;100.00
10940;BME280;5522;42.696;23.494;2023-02-21T05:26:47;53580.41;;;-139.68;100.00
10940;BME280;5522;42.696;23.494;2023-02-21T05:29:14;53566.34;;;-139.68;100.00
10940;BME280;5522;42.696;23.494;2023-02-21T05:31:41;53564.34;;;-139.68;100.00
10940;BME280;5522;42.696;23.494;2023-02-21T05:34:08;53576.41;;;-139.68;100.00
10940;BME280;5522;42.696;23.494;2023-02-21T05:36:35;53570.38;;;-139.68;100.00
10940;BME280;5522;42.696;23.494;2023-02-21T05:39:05;53564.34;;;-139.68;100.00
10940;BME280;5522;42.696;23.494;2023-02-21T05:41:32;53588.47;;;-139.68;100.00
10940;BME280;5522;42.696;23.494;2023-02-21T05:44:00;53596.50;;;-139.68;100.00
10940;BME280;5522;42.696;23.494;2023-02-21T05:46:29;53552.28;;;-139.68;100.00
10940;BME280;5522;42.696;23.494;2023-02-21T05:48:58;53590.47;;;-139.68;100.00
10940;BME280;5522;42.696;23.494;2023-02-21T05:51:26;53590.47;;;-139.68;100.00
10940;BME280;5522;42.696;23.494;2023-02-21T05:53:53;53594.50;;;-139.68;100.00
10940;BME280;5522;42.696;23.494;2023-02-21T05:56:21;53622.63;;;-139.68;100.00
10940;BME280;5522;42.696;23.494;2023-02-21T05:58:48;53642.72;;;-139.68;100.00
10940;BME280;5522;42.696;23.494;2023-02-21T06:01:16;53642.72;;;-139.68;87.22
10940;BME280;5522;42.696;23.494;2023-02-21T06:03:43;53660.81;;;-139.68;81.83
10940;BME280;5522;42.696;23.494;2023-02-21T06:06:10;53658.81;;;-139.68;77.26
10940;BME280;5522;42.696;23.494;2023-02-21T06:08:46;53648.75;;;-139.68;64.54
10940;BME280;5522;42.696;23.494;2023-02-21T06:11:14;53662.84;;;-139.68;57.87
10940;BME280;5522;42.696;23.494;2023-02-21T06:13:43;53650.78;;;-139.68;54.97
10940;BME280;5522;42.696;23.494;2023-02-21T06:16:09;53662.84;;;-139.68;47.41
10940;BME280;5522;42.696;23.494;2023-02-21T06:18:36;53668.88;;;-139.68;43.45
10940;BME280;5522;42.696;23.494;2023-02-21T06:21:03;53678.91;;;-139.68;41.54
10940;BME280;5522;42.696;23.494;2023-02-21T06:23:30;53709.06;;;-139.68;39.20
10940;BME280;5522;42.696;23.494;2023-02-21T06:25:57;53733.19;;;-139.68;38.66
10940;BME280;5522;42.696;23.494;2023-02-21T06:28:27;53715.09;;;-139.68;38.05
10940;BME280;5522;42.696;23.494;2023-02-21T06:30:56;53739.22;;;-139.68;37.66
10940;BME280;5522;42.696;23.494;2023-02-21T06:33:23;53731.19;;;-139.68;36.06
10940;BME280;5522;42.696;23.494;2023-02-21T06:35:50;53731.19;;;-139.68;34.67
10940;BME280;5522;42.696;23.494;2023-02-21T06:38:17;53745.25;;;-139.68;34.04
10940;BME280;5522;42.696;23.494;2023-02-21T06:40:44;53787.47;;;-139.68;33.98
10940;BME280;5522;42.696;23.494;2023-02-21T06:43:11;53765.34;;;-139.68;35.28
10940;BME280;5522;42.696;23.494;2023-02-21T06:45:38;53723.13;;;-139.68;35.56
10940;BME280;5522;42.696;23.494;2023-02-21T06:48:06;53745.25;;;-139.68;34.15
10940;BME280;5522;42.696;23.494;2023-02-21T06:50:33;53763.34;;;-139.68;33.08
10940;BME280;5522;42.696;23.494;2023-02-21T06:53:00;53749.28;;;-139.68;32.23
10940;BME280;5522;42.696;23.494;2023-02-21T06:55:27;53783.44;;;-139.68;31.53
10940;BME280;5522;42.696;23.494;2023-02-21T06:57:54;53837.72;;;-139.68;31.25
10940;BME280;5522;42.696;23.494;2023-02-21T07:00:21;53803.56;;;-139.68;31.32
10940;BME280;5522;42.696;23.494;2023-02-21T07:02:47;53815.63;;;-139.68;31.46
10940;BME280;5522;42.696;23.494;2023-02-21T07:05:16;53767.38;;;-139.68;31.06
10940;BME280;5522;42.696;23.494;2023-02-21T07:07:43;53777.41;;;-139.68;30.64
10940;BME280;5522;42.696;23.494;2023-02-21T07:10:10;53779.44;;;-139.68;31.16
10940;BME280;5522;42.696;23.494;2023-02-21T07:12:37;53763.34;;;-139.68;32.34
10940;BME280;5522;42.696;23.494;2023-02-21T07:15:06;53797.53;;;-139.68;32.29
10940;BME280;5522;42.696;23.494;2023-02-21T07:17:33;53751.28;;;-139.68;31.43
10940;BME280;5522;42.696;23.494;2023-02-21T07:19:59;53805.56;;;-139.68;30.46
10940;BME280;5522;42.696;23.494;2023-02-21T07:22:28;53801.53;;;-139.68;29.36
10940;BME280;5522;42.696;23.494;2023-02-21T07:24:55;53803.56;;;-139.68;28.61
10940;BME280;5522;42.696;23.494;2023-02-21T07:27:22;53793.50;;;-139.68;27.61
10940;BME280;5522;42.696;23.494;2023-02-21T07:29:49;53827.69;;;-139.68;27.03
10940;BME280;5522;42.696;23.494;2023-02-21T07:32:16;53803.56;;;-139.68;26.53
10940;BME280;5522;42.696;23.494;2023-02-21T07:34:43;53839.75;;;-139.68;26.95
10940;BME280;5522;42.696;23.494;2023-02-21T07:37:11;53829.69;;;-139.68;26.80
10940;BME280;5522;42.696;23.494;2023-02-21T07:39:40;53791.50;;;-139.68;25.98
10940;BME280;5522;42.696;23.494;2023-02-21T07:42:07;53811.59;;;-139.68;26.78
10940;BME280;5522;42.696;23.494;2023-02-21T07:44:33;53835.72;;;-139.68;26.84
10940;BME280;5522;42.696;23.494;2023-02-21T07:47:00;53807.56;;;-139.68;27.02
10940;BME280;5522;42.696;23.494;2023-02-21T07:49:27;53795.50;;;-139.68;27.34
10940;BME280;5522;42.696;23.494;2023-02-21T07:51:54;53827.69;;;-139.68;27.39
10940;BME280;5522;42.696;23.494;2023-02-21T07:54:21;53819.63;;;-139.68;28.57
10940;BME280;5522;42.696;23.494;2023-02-21T07:56:49;53855.81;;;-139.68;27.86
10940;BME280;5522;42.696;23.494;2023-02-21T07:59:16;53841.75;;;-139.68;28.04
10940;BME280;5522;42.696;23.494;2023-02-21T08:01:43;53807.56;;;-139.68;28.16
10940;BME280;5522;42.696;23.494;2023-02-21T08:04:11;53793.50;;;-139.68;28.60
10940;BME280;5522;42.696;23.494;2023-02-21T08:06:39;53815.63;;;-139.68;27.95
10940;BME280;5522;42.696;23.494;2023-02-21T08:09:06;53817.63;;;-139.68;28.21
10940;BME280;5522;42.696;23.494;2023-02-21T08:11:33;53823.66;;;-139.68;28.58
10940;BME280;5522;42.696;23.494;2023-02-21T08:14:02;53819.63;;;-139.68;29.11
10940;BME280;5522;42.696;23.494;2023-02-21T08:16:29;53789.47;;;-139.68;30.03
10940;BME280;5522;42.696;23.494;2023-02-21T08:18:56;53785.47;;;-139.68;30.34
10940;BME280;5522;42.696;23.494;2023-02-21T08:21:23;53827.69;;;-139.68;30.48
10940;BME280;5522;42.696;23.494;2023-02-21T08:23:52;53799.53;;;-139.68;30.87
10940;BME280;5522;42.696;23.494;2023-02-21T08:26:19;53815.63;;;-139.68;30.69
10940;BME280;5522;42.696;23.494;2023-02-21T08:28:47;53811.59;;;-139.68;31.45
10940;BME280;5522;42.696;23.494;2023-02-21T08:31:15;53805.56;;;-139.68;31.55
10940;BME280;5522;42.696;23.494;2023-02-21T08:33:43;53763.34;;;-139.68;31.80
10940;BME280;5522;42.696;23.494;2023-02-21T08:36:10;53835.72;;;-139.68;30.92
10940;BME280;5522;42.696;23.494;2023-02-21T08:38:37;53815.63;;;-139.68;29.88
10940;BME280;5522;42.696;23.494;2023-02-21T08:41:05;53827.69;;;-139.68;27.93
10940;BME280;5522;42.696;23.494;2023-02-21T08:43:32;53793.50;;;-139.68;28.54
10940;BME280;5522;42.696;23.494;2023-02-21T08:45:59;53827.69;;;-139.68;28.72
10940;BME280;5522;42.696;23.494;2023-02-21T08:48:28;53809.59;;;-139.68;29.32
10940;BME280;5522;42.696;23.494;2023-02-21T08:50:56;53831.69;;;-139.68;30.65
10940;BME280;5522;42.696;23.494;2023-02-21T08:53:23;53811.59;;;-139.68;31.35
10940;BME280;5522;42.696;23.494;2023-02-21T08:55:50;53811.59;;;-139.68;31.55
10940;BME280;5522;42.696;23.494;2023-02-21T08:58:17;53807.56;;;-139.68;31.43
10940;BME280;5522;42.696;23.494;2023-02-21T09:00:44;53825.66;;;-139.68;31.16
10940;BME280;5522;42.696;23.494;2023-02-21T09:03:10;53813.59;;;-139.68;30.24
10940;BME280;5522;42.696;23.494;2023-02-21T09:05:39;53811.59;;;-139.68;30.61
10940;BME280;5522;42.696;23.494;2023-02-21T09:08:05;53801.53;;;-139.68;31.09
10940;BME280;5522;42.696;23.494;2023-02-21T09:10:35;53821.66;;;-139.68;29.21
10940;BME280;5522;42.696;23.494;2023-02-21T09:13:03;53815.63;;;-139.68;29.41
10940;BME280;5522;42.696;23.494;2023-02-21T09:15:30;53819.63;;;-139.68;29.24
10940;BME280;5522;42.696;23.494;2023-02-21T09:17:57;53835.72;;;-139.68;30.08
10940;BME280;5522;42.696;23.494;2023-02-21T09:20:25;53747.25;;;-139.68;30.13
10940;BME280;5522;42.696;23.494;2023-02-21T09:22:54;53819.63;;;-139.68;30.55
10940;BME280;5522;42.696;23.494;2023-02-21T09:25:22;53831.69;;;-139.68;29.96
10940;BME280;5522;42.696;23.494;2023-02-21T09:27:50;53795.50;;;-139.68;30.43
10940;BME280;5522;42.696;23.494;2023-02-21T09:30:20;53821.66;;;-139.68;29.82
10940;BME280;5522;42.696;23.494;2023-02-21T09:32:48;53797.53;;;-139.68;29.03
10940;BME280;5522;42.696;23.494;2023-02-21T09:35:16;53843.75;;;-139.68;27.66
10940;BME280;5522;42.696;23.494;2023-02-21T09:37:44;53863.88;;;-139.68;27.81
10940;BME280;5522;42.696;23.494;2023-02-21T09:40:19;53801.53;;;-139.68;27.03
10940;BME280;5522;42.696;23.494;2023-02-21T09:42:48;53799.53;;;-139.68;26.21
10940;BME280;5522;42.696;23.494;2023-02-21T09:45:16;53815.63;;;-139.68;26.11
10940;BME280;5522;42.696;23.494;2023-02-21T09:47:48;53841.75;;;-139.68;25.76
10940;BME280;5522;42.696;23.494;2023-02-21T09:50:18;53839.75;;;-139.68;26.21
10940;BME280;5522;42.696;23.494;2023-02-21T09:52:46;53847.78;;;-139.68;25.26
10940;BME280;5522;42.696;23.494;2023-02-21T09:55:25;53843.75;;;-139.68;24.85
10940;BME280;5522;42.696;23.494;2023-02-21T09:57:53;53837.72;;;-139.68;24.85
10940;BME280;5522;42.696;23.494;2023-02-21T10:00:22;53843.75;;;-139.68;23.76
10940;BME280;5522;42.696;23.494;2023-02-21T10:02:58;53851.81;;;-139.68;24.04
10940;BME280;5522;42.696;23.494;2023-02-21T10:05:41;53847.78;;;-139.68;22.98
10940;BME280;5522;42.696;23.494;2023-02-21T10:08:16;53829.69;;;-139.68;23.41
10940;BME280;5522;42.696;23.494;2023-02-21T10:10:49;53837.72;;;-139.68;23.45
10940;BME280;5522;42.696;23.494;2023-02-21T10:13:27;53855.81;;;-139.68;22.83
10940;BME280;5522;42.696;23.494;2023-02-21T10:16:01;53902.06;;;-139.68;22.45
10940;BME280;5522;42.696;23.494;2023-02-21T10:18:34;53851.81;;;-139.68;22.49
10940;BME280;5522;42.696;23.494;2023-02-21T10:21:10;53839.75;;;-139.68;22.61
10940;BME280;5522;42.696;23.494;2023-02-21T10:23:40;53867.88;;;-139.68;22.87
10940;BME280;5522;42.696;23.494;2023-02-21T10:26:12;53869.91;;;-139.68;22.63
10940;BME280;5522;42.696;23.494;2023-02-21T10:28:40;53843.75;;;-139.68;22.30
10940;BME280;5522;42.696;23.494;2023-02-21T10:31:08;53839.75;;;-139.68;21.95
10940;BME280;5522;42.696;23.494;2023-02-21T10:33:38;53861.84;;;-139.68;22.17
10940;BME280;5522;42.696;23.494;2023-02-21T10:36:13;53823.66;;;-139.68;21.27
10940;BME280;5522;42.696;23.494;2023-02-21T10:38:42;53879.94;;;-139.68;20.36
10940;BME280;5522;42.696;23.494;2023-02-21T10:41:15;53873.91;;;-139.68;20.50
10940;BME280;5522;42.696;23.494;2023-02-21T10:43:45;53888.00;;;-139.68;20.12
10940;BME280;5522;42.696;23.494;2023-02-21T10:46:19;53900.06;;;-139.68;19.72
10940;BME280;5522;42.696;23.494;2023-02-21T10:48:50;53863.88;;;-139.68;20.00
10940;BME280;5522;42.696;23.494;2023-02-21T10:51:29;53883.97;;;-139.68;20.62
10940;BME280;5522;42.696;23.494;2023-02-21T10:54:17;53875.94;;;-139.68;20.00
10940;BME280;5522;42.696;23.494;2023-02-21T10:56:47;53863.88;;;-139.68;20.37
10940;BME280;5522;42.696;23.494;2023-02-21T10:59:20;53892.00;;;-139.68;20.87
10940;BME280;5522;42.696;23.494;2023-02-21T11:01:48;53871.91;;;-139.68;21.25
10940;BME280;5522;42.696;23.494;2023-02-21T11:04:25;53912.13;;;-139.68;21.51
10940;BME280;5522;42.696;23.494;2023-02-21T11:06:54;53910.09;;;-139.68;22.01
10940;BME280;5522;42.696;23.494;2023-02-21T11:09:34;53865.88;;;-139.68;22.77
10940;BME280;5522;42.696;23.494;2023-02-21T11:12:06;53898.03;;;-139.68;23.51
10940;BME280;5522;42.696;23.494;2023-02-21T11:14:42;53875.94;;;-139.68;23.10
10940;BME280;5522;42.696;23.494;2023-02-21T11:17:15;53867.88;;;-139.68;21.69
10940;BME280;5522;42.696;23.494;2023-02-21T11:19:48;53849.78;;;-139.68;21.55
10940;BME280;5522;42.696;23.494;2023-02-21T11:22:17;53896.03;;;-139.68;21.10
10940;BME280;5522;42.696;23.494;2023-02-21T11:25:00;53883.97;;;-139.68;21.71
10940;BME280;5522;42.696;23.494;2023-02-21T11:27:32;53883.97;;;-139.68;22.83
10940;BME280;5522;42.696;23.494;2023-02-21T11:30:02;53916.13;;;-139.68;22.86
10940;BME280;5522;42.696;23.494;2023-02-21T11:32:33;53831.69;;;-139.68;23.79
10940;BME280;5522;42.696;23.494;2023-02-21T11:35:21;53904.06;;;-139.68;23.96
10940;BME280;5522;42.696;23.494;2023-02-21T11:37:52;53906.06;;;-139.68;24.31
10940;BME280;5522;42.696;23.494;2023-02-21T11:40:28;53879.94;;;-139.68;24.64
10940;BME280;5522;42.696;23.494;2023-02-21T11:43:19;53904.06;;;-139.68;24.83
10940;BME280;5522;42.696;23.494;2023-02-21T11:46:03;53883.97;;;-139.68;25.43
10940;BME280;5522;42.696;23.494;2023-02-21T11:48:37;53855.81;;;-139.68;25.50
10940;BME280;5522;42.696;23.494;2023-02-21T11:51:21;53877.94;;;-139.68;25.37
10940;BME280;5522;42.696;23.494;2023-02-21T11:53:51;53863.88;;;-139.68;25.60
10940;BME280;5522;42.696;23.494;2023-02-21T11:56:28;53865.88;;;-139.68;25.17
10940;BME280;5522;42.696;23.494;2023-02-21T11:59:03;53912.13;;;-139.68;25.67
10940;BME280;5522;42.696;23.494;2023-02-21T12:01:41;53851.81;;;-139.68;26.00
10940;BME280;5522;42.696;23.494;2023-02-21T12:04:29;53900.06;;;-139.68;25.31
10940;BME280;5522;42.696;23.494;2023-02-21T12:07:04;53855.81;;;-139.68;25.28
10940;BME280;5522;42.696;23.494;2023-02-21T12:09:40;53888.00;;;-139.68;25.53
10940;BME280;5522;42.696;23.494;2023-02-21T12:12:18;53885.97;;;-139.68;25.51
10940;BME280;5522;42.696;23.494;2023-02-21T12:15:05;53855.81;;;-139.68;25.85
10940;BME280;5522;42.696;23.494;2023-02-21T12:17:49;53869.91;;;-139.68;25.84
10940;BME280;5522;42.696;23.494;2023-02-21T12:20:27;53835.72;;;-139.68;25.38
10940;BME280;5522;42.696;23.494;2023-02-21T12:23:03;53877.94;;;-139.68;25.56
10940;BME280;5522;42.696;23.494;2023-02-21T12:25:35;53867.88;;;-139.68;25.81
10940;BME280;5522;42.696;23.494;2023-02-21T12:28:15;53831.69;;;-139.68;25.70
10940;BME280;5522;42.696;23.494;2023-02-21T12:30:57;53867.88;;;-139.68;26.10
10940;BME280;5522;42.696;23.494;2023-02-21T12:33:36;53859.84;;;-139.68;25.71
10940;BME280;5522;42.696;23.494;2023-02-21T12:36:18;53859.84;;;-139.68;26.09
10940;BME280;5522;42.696;23.494;2023-02-21T12:38:53;53898.03;;;-139.68;26.36
10940;BME280;5522;42.696;23.494;2023-02-21T12:41:41;53847.78;;;-139.68;26.43
10940;BME280;5522;42.696;23.494;2023-02-21T12:44:14;53865.88;;;-139.68;26.71
10940;BME280;5522;42.696;23.494;2023-02-21T12:46:50;53823.66;;;-139.68;26.58
10940;BME280;5522;42.696;23.494;2023-02-21T12:49:24;53851.81;;;-139.68;27.12
10940;BME280;5522;42.696;23.494;2023-02-21T12:51:56;53855.81;;;-139.68;26.86
10940;BME280;5522;42.696;23.494;2023-02-21T12:54:35;53853.81;;;-139.68;26.48
10940;BME280;5522;42.696;23.494;2023-02-21T12:57:07;53896.03;;;-139.68;26.20
10940;BME280;5522;42.696;23.494;2023-02-21T12:59:45;53875.94;;;-139.68;26.48
10940;BME280;5522;42.696;23.494;2023-02-21T13:02:20;53841.75;;;-139.68;26.90
10940;BME280;5522;42.696;23.494;2023-02-21T13:04:53;53843.75;;;-139.68;26.77
10940;BME280;5522;42.696;23.494;2023-02-21T13:07:23;53823.66;;;-139.68;26.85
10940;BME280;5522;42.696;23.494;2023-02-21T13:09:59;53845.78;;;-139.68;26.92
10940;BME280;5522;42.696;23.494;2023-02-21T13:12:35;53843.75;;;-139.68;26.65
10940;BME280;5522;42.696;23.494;2023-02-21T13:15:14;53839.75;;;-139.68;26.33
10940;BME280;5522;42.696;23.494;2023-02-21T13:17:49;53867.88;;;-139.68;26.31